Hokusei Maru — JD3263 — position and weather

sailwx.info

Track history (hours):
 
Tides and Currents Weather Stations Pressure Air Temp Water Temp Dewpoint Dewpoint Depression Visibility Wind Speed Wind Dir Waves Ship Positions

Hokusei Maru

Last reported at 2017-Nov-19 23:12 UTC. Time now 2017-Nov-22 11:10 UTC.
Position N 35°28' E 139°58'.

Length 83 m; draft 3.2 m.

Type: Cargo ship. MMSI: 431003032.

Date/timePositionNaut miles runAvg speedWind from/ knotsBaromVisibWave heightAir tempDewpointWater temp
2017-Nov-19 23:12N 35°28' E 139°58'2 0.6
2017-Nov-19 19:53N 35°28' E 139°56'712.0
2017-Nov-19 19:19N 35°26' E 139°48'412.6
2017-Nov-19 19:01N 35°22' E 139°45'611.8
2017-Nov-19 18:31N 35°16' E 139°46'611.9
2017-Nov-19 18:01N 35°11' E 139°46'611.1
2017-Nov-19 17:31N 35°06' E 139°42'611.2
2017-Nov-19 17:00N 35°02' E 139°37'611.2
2017-Nov-19 16:30N 34°58' E 139°32'  
2017-Nov-17 06:52N 35°05' E 139°33'512.9
2017-Nov-17 06:31N 35°06' E 139°38'612.1
2017-Nov-17 06:00N 35°10' E 139°44'611.6
2017-Nov-17 05:30N 35°15' E 139°46'611.8
2017-Nov-17 05:01N 35°20' E 139°42'611.0
2017-Nov-17 04:30N 35°26' E 139°45'612.1
2017-Nov-17 04:00N 35°29' E 139°51'6 2.0
2017-Nov-17 01:05N 35°28' E 139°58'211.6
2017-Nov-17 00:55N 35°28' E 139°55'611.7
2017-Nov-17 00:24N 35°26' E 139°49'511.8
2017-Nov-17 00:00N 35°22' E 139°45'611.0
2017-Nov-16 23:30N 35°17' E 139°46'511.1
2017-Nov-16 23:00N 35°11' E 139°46'611.6
2017-Nov-16 22:30N 35°07' E 139°42'612.4
2017-Nov-16 22:00N 35°02' E 139°37'26 0.7
2017-Nov-15 08:23N 34°50' E 139°09'2411.3
2017-Nov-15 06:16N 35°04' E 139°33'311.7
2017-Nov-15 05:59N 35°06' E 139°37'611.8
2017-Nov-15 05:30N 35°08' E 139°43'612.1
2017-Nov-15 05:00N 35°14' E 139°46'611.9
2017-Nov-15 04:28N 35°19' E 139°43'511.5
2017-Nov-15 04:00N 35°25' E 139°43'612.4
2017-Nov-15 03:30N 35°28' E 139°50'7 2.2
2017-Nov-15 00:17N 35°27' E 139°58'3 9.6
2017-Nov-15 00:00N 35°28' E 139°55'611.7
2017-Nov-14 23:30N 35°26' E 139°48'612.0
2017-Nov-14 23:00N 35°21' E 139°45'611.5
2017-Nov-14 22:31N 35°15' E 139°47'611.6
2017-Nov-14 22:00N 35°09' E 139°45'612.1
2017-Nov-14 21:30N 35°05' E 139°41'612.4
2017-Nov-14 21:00N 35°01' E 139°35'30 0.7
2017-Nov-13 02:00N 35°28' E 139°49'7 2.5
2017-Nov-12 23:12N 35°27' E 139°58'2 0.6
2017-Nov-12 19:42N 35°29' E 139°56'210.4
2017-Nov-12 19:31N 35°28' E 139°54'612.3
2017-Nov-12 19:00N 35°25' E 139°47'612.1
2017-Nov-12 18:31N 35°19' E 139°44'611.3
2017-Nov-12 18:00N 35°14' E 139°47'612.0
2017-Nov-12 17:30N 35°08' E 139°45'612.6
2017-Nov-12 17:01N 35°04' E 139°39'712.8
2017-Nov-12 16:30N 34°60' E 139°33'  
2017-Nov-10 09:53N 35°04' E 139°36'512.0
2017-Nov-10 09:30N 35°07' E 139°40'611.9
2017-Nov-10 09:00N 35°11' E 139°45'611.0
2017-Nov-10 08:29N 35°17' E 139°45'511.5
2017-Nov-10 08:01N 35°22' E 139°42'510.8
2017-Nov-10 07:30N 35°26' E 139°46'10 3.1
2017-Nov-10 04:23N 35°27' E 139°58'4 6.5
2017-Nov-10 03:50N 35°29' E 139°54'611.5
2017-Nov-10 03:19N 35°26' E 139°48'411.6
2017-Nov-10 03:00N 35°23' E 139°46'611.1
2017-Nov-10 02:27N 35°17' E 139°46'511.5
2017-Nov-10 02:00N 35°12' E 139°47'612.4
2017-Nov-10 01:30N 35°06' E 139°44'612.7
2017-Nov-10 01:00N 35°02' E 139°38'  
Track history (hours):
 
Tides and Currents Weather Stations Pressure Air Temp Water Temp Dewpoint Dewpoint Depression Visibility Wind Speed Wind Dir Waves Ship Positions

Hokusei Maru

Last reported at 2017-Nov-19 23:12 UTC. Time now 2017-Nov-22 11:10 UTC.
Position N 35°28' E 139°58'.

Length 83 m; draft 3.2 m.

Type: Cargo ship. MMSI: 431003032.

Date/timePositionNaut miles runAvg speedWind from/ knotsBaromVisibWave heightAir tempDewpointWater temp
2017-Nov-19 23:12N 35°28' E 139°58'2 0.6
2017-Nov-19 19:53N 35°28' E 139°56'712.0
2017-Nov-19 19:19N 35°26' E 139°48'412.6
2017-Nov-19 19:01N 35°22' E 139°45'611.8
2017-Nov-19 18:31N 35°16' E 139°46'611.9
2017-Nov-19 18:01N 35°11' E 139°46'611.1
2017-Nov-19 17:31N 35°06' E 139°42'611.2
2017-Nov-19 17:00N 35°02' E 139°37'611.2
2017-Nov-19 16:30N 34°58' E 139°32'  
2017-Nov-17 06:52N 35°05' E 139°33'512.9
2017-Nov-17 06:31N 35°06' E 139°38'612.1
2017-Nov-17 06:00N 35°10' E 139°44'611.6
2017-Nov-17 05:30N 35°15' E 139°46'611.8
2017-Nov-17 05:01N 35°20' E 139°42'611.0
2017-Nov-17 04:30N 35°26' E 139°45'612.1
2017-Nov-17 04:00N 35°29' E 139°51'6 2.0
2017-Nov-17 01:05N 35°28' E 139°58'211.6
2017-Nov-17 00:55N 35°28' E 139°55'611.7
2017-Nov-17 00:24N 35°26' E 139°49'511.8
2017-Nov-17 00:00N 35°22' E 139°45'611.0
2017-Nov-16 23:30N 35°17' E 139°46'511.1
2017-Nov-16 23:00N 35°11' E 139°46'611.6
2017-Nov-16 22:30N 35°07' E 139°42'612.4
2017-Nov-16 22:00N 35°02' E 139°37'26 0.7
2017-Nov-15 08:23N 34°50' E 139°09'2411.3
2017-Nov-15 06:16N 35°04' E 139°33'311.7
2017-Nov-15 05:59N 35°06' E 139°37'611.8
2017-Nov-15 05:30N 35°08' E 139°43'612.1
2017-Nov-15 05:00N 35°14' E 139°46'611.9
2017-Nov-15 04:28N 35°19' E 139°43'511.5
2017-Nov-15 04:00N 35°25' E 139°43'612.4
2017-Nov-15 03:30N 35°28' E 139°50'7 2.2
2017-Nov-15 00:17N 35°27' E 139°58'3 9.6
2017-Nov-15 00:00N 35°28' E 139°55'611.7
2017-Nov-14 23:30N 35°26' E 139°48'612.0
2017-Nov-14 23:00N 35°21' E 139°45'611.5
2017-Nov-14 22:31N 35°15' E 139°47'611.6
2017-Nov-14 22:00N 35°09' E 139°45'612.1
2017-Nov-14 21:30N 35°05' E 139°41'612.4
2017-Nov-14 21:00N 35°01' E 139°35'30 0.7
2017-Nov-13 02:00N 35°28' E 139°49'7 2.5
2017-Nov-12 23:12N 35°27' E 139°58'2 0.6
2017-Nov-12 19:42N 35°29' E 139°56'210.4
2017-Nov-12 19:31N 35°28' E 139°54'612.3
2017-Nov-12 19:00N 35°25' E 139°47'612.1
2017-Nov-12 18:31N 35°19' E 139°44'611.3
2017-Nov-12 18:00N 35°14' E 139°47'612.0
2017-Nov-12 17:30N 35°08' E 139°45'612.6
2017-Nov-12 17:01N 35°04' E 139°39'712.8
2017-Nov-12 16:30N 34°60' E 139°33'  
2017-Nov-10 09:53N 35°04' E 139°36'512.0
2017-Nov-10 09:30N 35°07' E 139°40'611.9
2017-Nov-10 09:00N 35°11' E 139°45'611.0
2017-Nov-10 08:29N 35°17' E 139°45'511.5
2017-Nov-10 08:01N 35°22' E 139°42'510.8
2017-Nov-10 07:30N 35°26' E 139°46'10 3.1
2017-Nov-10 04:23N 35°27' E 139°58'4 6.5
2017-Nov-10 03:50N 35°29' E 139°54'611.5
2017-Nov-10 03:19N 35°26' E 139°48'411.6
2017-Nov-10 03:00N 35°23' E 139°46'611.1
2017-Nov-10 02:27N 35°17' E 139°46'511.5
2017-Nov-10 02:00N 35°12' E 139°47'612.4
2017-Nov-10 01:30N 35°06' E 139°44'612.7
2017-Nov-10 01:00N 35°02' E 139°38'  

Dump ship's entire track history